sensor_id;sensor_type;location;lat;lon;timestamp;temperature;humidity
26035;DHT22;13809;48.632;11.576;2023-07-22T00:03:53;20.20;28.60
26035;DHT22;13809;48.632;11.576;2023-07-22T00:08:56;20.10;29.10
26035;DHT22;13809;48.632;11.576;2023-07-22T00:13:59;20.10;28.80
26035;DHT22;13809;48.632;11.576;2023-07-22T00:19:04;20.00;28.90
26035;DHT22;13809;48.632;11.576;2023-07-22T00:24:09;20.00;29.40
26035;DHT22;13809;48.632;11.576;2023-07-22T00:29:12;20.00;29.10
26035;DHT22;13809;48.632;11.576;2023-07-22T00:34:17;19.90;29.10
26035;DHT22;13809;48.632;11.576;2023-07-22T00:39:21;19.90;29.50
26035;DHT22;13809;48.632;11.576;2023-07-22T00:44:24;19.80;29.20
26035;DHT22;13809;48.632;11.576;2023-07-22T00:49:30;19.70;29.20
26035;DHT22;13809;48.632;11.576;2023-07-22T00:54:33;19.70;29.70
26035;DHT22;13809;48.632;11.576;2023-07-22T00:59:37;19.60;29.40
26035;DHT22;13809;48.632;11.576;2023-07-22T01:04:42;19.60;29.40
26035;DHT22;13809;48.632;11.576;2023-07-22T01:09:45;19.50;29.80
26035;DHT22;13809;48.632;11.576;2023-07-22T01:14:49;19.40;29.40
26035;DHT22;13809;48.632;11.576;2023-07-22T01:19:54;19.30;29.60
26035;DHT22;13809;48.632;11.576;2023-07-22T01:25:00;19.20;30.10
26035;DHT22;13809;48.632;11.576;2023-07-22T01:30:04;19.20;30.40
26035;DHT22;13809;48.632;11.576;2023-07-22T01:35:09;19.10;29.90
26035;DHT22;13809;48.632;11.576;2023-07-22T01:40:14;19.10;30.00
26035;DHT22;13809;48.632;11.576;2023-07-22T01:45:17;19.10;30.30
26035;DHT22;13809;48.632;11.576;2023-07-22T01:50:20;19.10;30.00
26035;DHT22;13809;48.632;11.576;2023-07-22T01:55:25;19.10;29.80
26035;DHT22;13809;48.632;11.576;2023-07-22T02:00:29;19.10;30.10
26035;DHT22;13809;48.632;11.576;2023-07-22T02:05:32;18.90;29.90
26035;DHT22;13809;48.632;11.576;2023-07-22T02:10:36;18.90;30.00
26035;DHT22;13809;48.632;11.576;2023-07-22T02:15:41;18.90;30.40
26035;DHT22;13809;48.632;11.576;2023-07-22T02:20:44;18.90;30.50
26035;DHT22;13809;48.632;11.576;2023-07-22T02:25:50;18.90;30.20
26035;DHT22;13809;48.632;11.576;2023-07-22T02:30:53;18.90;30.80
26035;DHT22;13809;48.632;11.576;2023-07-22T02:35:56;18.90;30.10
26035;DHT22;13809;48.632;11.576;2023-07-22T02:41:04;18.90;30.00
26035;DHT22;13809;48.632;11.576;2023-07-22T02:46:09;18.90;31.00
26035;DHT22;13809;48.632;11.576;2023-07-22T02:51:13;18.70;30.00
26035;DHT22;13809;48.632;11.576;2023-07-22T02:56:17;18.50;30.10
26035;DHT22;13809;48.632;11.576;2023-07-22T03:01:21;18.20;30.60
26035;DHT22;13809;48.632;11.576;2023-07-22T03:06:25;18.00;30.60
26035;DHT22;13809;48.632;11.576;2023-07-22T03:11:31;17.70;30.90
26035;DHT22;13809;48.632;11.576;2023-07-22T03:16:34;17.60;31.60
26035;DHT22;13809;48.632;11.576;2023-07-22T03:21:37;17.60;31.30
26035;DHT22;13809;48.632;11.576;2023-07-22T03:26:42;17.60;31.60
26035;DHT22;13809;48.632;11.576;2023-07-22T03:31:46;17.60;32.20
26035;DHT22;13809;48.632;11.576;2023-07-22T03:36:51;17.70;31.90
26035;DHT22;13809;48.632;11.576;2023-07-22T03:41:56;17.70;31.90
26035;DHT22;13809;48.632;11.576;2023-07-22T03:47:00;17.70;31.70
26035;DHT22;13809;48.632;11.576;2023-07-22T03:52:05;17.60;31.50
26035;DHT22;13809;48.632;11.576;2023-07-22T03:57:10;17.50;31.90
26035;DHT22;13809;48.632;11.576;2023-07-22T04:02:13;17.40;32.00
26035;DHT22;13809;48.632;11.576;2023-07-22T04:07:18;17.30;31.90
26035;DHT22;13809;48.632;11.576;2023-07-22T04:12:23;17.30;32.80
26035;DHT22;13809;48.632;11.576;2023-07-22T04:17:26;17.30;32.60
26035;DHT22;13809;48.632;11.576;2023-07-22T04:22:29;17.30;33.10
26035;DHT22;13809;48.632;11.576;2023-07-22T04:27:34;17.30;32.50
26035;DHT22;13809;48.632;11.576;2023-07-22T04:32:37;17.40;33.50
26035;DHT22;13809;48.632;11.576;2023-07-22T04:37:40;17.50;33.10
26035;DHT22;13809;48.632;11.576;2023-07-22T04:42:45;17.50;33.00
26035;DHT22;13809;48.632;11.576;2023-07-22T04:47:48;17.60;33.40
26035;DHT22;13809;48.632;11.576;2023-07-22T04:52:53;17.70;32.90
26035;DHT22;13809;48.632;11.576;2023-07-22T04:57:58;17.80;33.00
26035;DHT22;13809;48.632;11.576;2023-07-22T05:03:05;17.80;33.60
26035;DHT22;13809;48.632;11.576;2023-07-22T05:08:08;17.80;33.20
26035;DHT22;13809;48.632;11.576;2023-07-22T05:13:14;17.90;33.60
26035;DHT22;13809;48.632;11.576;2023-07-22T05:18:18;18.00;34.70
26035;DHT22;13809;48.632;11.576;2023-07-22T05:23:21;18.00;33.60
26035;DHT22;13809;48.632;11.576;2023-07-22T05:28:26;18.10;34.00
26035;DHT22;13809;48.632;11.576;2023-07-22T05:33:29;18.30;34.70
26035;DHT22;13809;48.632;11.576;2023-07-22T05:38:32;18.30;34.40
26035;DHT22;13809;48.632;11.576;2023-07-22T05:43:37;18.40;34.40
26035;DHT22;13809;48.632;11.576;2023-07-22T05:48:40;18.50;35.20
26035;DHT22;13809;48.632;11.576;2023-07-22T05:53:43;18.60;34.80
26035;DHT22;13809;48.632;11.576;2023-07-22T05:58:48;18.70;35.40
26035;DHT22;13809;48.632;11.576;2023-07-22T06:03:51;18.80;35.50
26035;DHT22;13809;48.632;11.576;2023-07-22T06:08:55;18.90;35.50
26035;DHT22;13809;48.632;11.576;2023-07-22T06:13:59;19.00;35.60
26035;DHT22;13809;48.632;11.576;2023-07-22T06:19:03;19.20;35.80
26035;DHT22;13809;48.632;11.576;2023-07-22T06:24:07;19.30;35.90
26035;DHT22;13809;48.632;11.576;2023-07-22T06:29:11;19.50;35.30
26035;DHT22;13809;48.632;11.576;2023-07-22T06:34:17;19.70;35.40
26035;DHT22;13809;48.632;11.576;2023-07-22T06:39:20;19.90;35.00
26035;DHT22;13809;48.632;11.576;2023-07-22T06:44:24;20.10;34.70
26035;DHT22;13809;48.632;11.576;2023-07-22T06:49:28;20.30;34.60
26035;DHT22;13809;48.632;11.576;2023-07-22T06:54:31;20.50;34.30
26035;DHT22;13809;48.632;11.576;2023-07-22T06:59:35;20.80;34.80
26035;DHT22;13809;48.632;11.576;2023-07-22T07:04:40;21.00;34.10
26035;DHT22;13809;48.632;11.576;2023-07-22T07:09:45;21.10;33.80
26035;DHT22;13809;48.632;11.576;2023-07-22T07:14:51;21.30;33.70
26035;DHT22;13809;48.632;11.576;2023-07-22T07:19:55;21.50;32.80
26035;DHT22;13809;48.632;11.576;2023-07-22T07:24:58;21.60;33.60
26035;DHT22;13809;48.632;11.576;2023-07-22T07:30:06;21.80;33.50
26035;DHT22;13809;48.632;11.576;2023-07-22T07:35:11;21.90;33.00
26035;DHT22;13809;48.632;11.576;2023-07-22T07:40:40;22.10;33.00
26035;DHT22;13809;48.632;11.576;2023-07-22T07:45:45;22.20;32.60
26035;DHT22;13809;48.632;11.576;2023-07-22T07:50:49;22.40;32.20
26035;DHT22;13809;48.632;11.576;2023-07-22T07:55:52;22.50;32.20
26035;DHT22;13809;48.632;11.576;2023-07-22T08:00:57;22.70;31.90
26035;DHT22;13809;48.632;11.576;2023-07-22T08:06:02;22.90;31.90
26035;DHT22;13809;48.632;11.576;2023-07-22T08:11:07;23.10;31.30
26035;DHT22;13809;48.632;11.576;2023-07-22T08:16:15;23.30;31.10
26035;DHT22;13809;48.632;11.576;2023-07-22T08:21:19;23.50;30.90
26035;DHT22;13809;48.632;11.576;2023-07-22T08:26:22;23.70;30.50
26035;DHT22;13809;48.632;11.576;2023-07-22T08:31:28;23.90;30.30
26035;DHT22;13809;48.632;11.576;2023-07-22T08:36:34;24.00;29.40
26035;DHT22;13809;48.632;11.576;2023-07-22T08:41:38;24.20;29.50
26035;DHT22;13809;48.632;11.576;2023-07-22T08:46:45;24.30;29.70
26035;DHT22;13809;48.632;11.576;2023-07-22T08:51:48;24.50;28.40
26035;DHT22;13809;48.632;11.576;2023-07-22T08:56:53;24.60;28.40
26035;DHT22;13809;48.632;11.576;2023-07-22T09:01:59;24.70;28.80
26035;DHT22;13809;48.632;11.576;2023-07-22T09:07:03;24.90;28.00
26035;DHT22;13809;48.632;11.576;2023-07-22T09:12:11;25.00;27.90
26035;DHT22;13809;48.632;11.576;2023-07-22T09:17:17;25.30;27.60
26035;DHT22;13809;48.632;11.576;2023-07-22T09:22:25;25.40;27.30
26035;DHT22;13809;48.632;11.576;2023-07-22T09:27:34;25.70;26.90
26035;DHT22;13809;48.632;11.576;2023-07-22T09:32:42;26.00;27.20
26035;DHT22;13809;48.632;11.576;2023-07-22T09:37:46;26.10;26.60
26035;DHT22;13809;48.632;11.576;2023-07-22T09:42:51;26.30;26.50
26035;DHT22;13809;48.632;11.576;2023-07-22T09:47:58;26.30;26.30
26035;DHT22;13809;48.632;11.576;2023-07-22T09:53:02;26.40;26.10
26035;DHT22;13809;48.632;11.576;2023-07-22T09:58:05;26.40;26.50
26035;DHT22;13809;48.632;11.576;2023-07-22T10:03:12;26.50;25.90
26035;DHT22;13809;48.632;11.576;2023-07-22T10:08:19;26.50;25.20
26035;DHT22;13809;48.632;11.576;2023-07-22T10:13:24;26.50;25.40
26035;DHT22;13809;48.632;11.576;2023-07-22T10:18:31;26.40;25.90
26035;DHT22;13809;48.632;11.576;2023-07-22T10:23:36;26.50;24.50
26035;DHT22;13809;48.632;11.576;2023-07-22T10:28:42;26.50;24.90
26035;DHT22;13809;48.632;11.576;2023-07-22T10:33:48;26.40;24.80
26035;DHT22;13809;48.632;11.576;2023-07-22T10:38:55;26.40;24.30
26035;DHT22;13809;48.632;11.576;2023-07-22T10:44:01;26.40;24.70
26035;DHT22;13809;48.632;11.576;2023-07-22T10:49:11;26.60;24.90
26035;DHT22;13809;48.632;11.576;2023-07-22T10:54:30;26.70;23.50
26035;DHT22;13809;48.632;11.576;2023-07-22T10:59:34;26.90;24.60
26035;DHT22;13809;48.632;11.576;2023-07-22T11:04:39;27.10;24.30
26035;DHT22;13809;48.632;11.576;2023-07-22T11:09:57;27.20;24.00
26035;DHT22;13809;48.632;11.576;2023-07-22T11:15:03;27.40;23.40
26035;DHT22;13809;48.632;11.576;2023-07-22T11:20:09;27.40;22.60
26035;DHT22;13809;48.632;11.576;2023-07-22T11:25:17;27.50;22.60
26035;DHT22;13809;48.632;11.576;2023-07-22T11:30:23;27.50;21.90
26035;DHT22;13809;48.632;11.576;2023-07-22T11:35:29;27.60;22.50
26035;DHT22;13809;48.632;11.576;2023-07-22T11:40:35;27.70;22.10
26035;DHT22;13809;48.632;11.576;2023-07-22T11:45:38;27.90;21.50
26035;DHT22;13809;48.632;11.576;2023-07-22T11:50:44;28.00;21.60
26035;DHT22;13809;48.632;11.576;2023-07-22T11:55:48;28.00;20.70
26035;DHT22;13809;48.632;11.576;2023-07-22T12:01:02;28.00;21.00
26035;DHT22;13809;48.632;11.576;2023-07-22T12:06:09;28.00;20.20
26035;DHT22;13809;48.632;11.576;2023-07-22T12:11:19;28.00;20.50
26035;DHT22;13809;48.632;11.576;2023-07-22T12:16:23;28.00;20.10
26035;DHT22;13809;48.632;11.576;2023-07-22T12:21:29;28.00;20.10
26035;DHT22;13809;48.632;11.576;2023-07-22T12:26:33;28.10;19.90
26035;DHT22;13809;48.632;11.576;2023-07-22T12:31:36;28.10;20.10
26035;DHT22;13809;48.632;11.576;2023-07-22T12:36:41;28.10;20.10
26035;DHT22;13809;48.632;11.576;2023-07-22T12:41:45;28.20;19.80
26035;DHT22;13809;48.632;11.576;2023-07-22T12:46:54;28.20;20.20
26035;DHT22;13809;48.632;11.576;2023-07-22T12:51:59;28.30;19.20
26035;DHT22;13809;48.632;11.576;2023-07-22T12:57:06;28.30;19.50
26035;DHT22;13809;48.632;11.576;2023-07-22T13:02:10;28.40;19.50
26035;DHT22;13809;48.632;11.576;2023-07-22T13:07:14;28.50;19.20
26035;DHT22;13809;48.632;11.576;2023-07-22T13:12:19;28.50;19.30
26035;DHT22;13809;48.632;11.576;2023-07-22T13:17:24;28.60;18.60
26035;DHT22;13809;48.632;11.576;2023-07-22T13:22:28;28.60;18.90
26035;DHT22;13809;48.632;11.576;2023-07-22T13:27:32;28.70;18.30
26035;DHT22;13809;48.632;11.576;2023-07-22T13:32:35;28.70;18.50
26035;DHT22;13809;48.632;11.576;2023-07-22T13:37:42;28.80;18.20
26035;DHT22;13809;48.632;11.576;2023-07-22T13:42:46;28.80;17.80
26035;DHT22;13809;48.632;11.576;2023-07-22T13:47:50;28.70;18.40
26035;DHT22;13809;48.632;11.576;2023-07-22T13:52:55;28.70;18.20
26035;DHT22;13809;48.632;11.576;2023-07-22T13:57:59;28.80;18.00
26035;DHT22;13809;48.632;11.576;2023-07-22T14:03:03;28.80;18.30
26035;DHT22;13809;48.632;11.576;2023-07-22T14:08:09;28.90;17.90
26035;DHT22;13809;48.632;11.576;2023-07-22T14:13:13;28.80;17.50
26035;DHT22;13809;48.632;11.576;2023-07-22T14:18:16;28.80;17.80
26035;DHT22;13809;48.632;11.576;2023-07-22T14:23:22;28.80;17.80
26035;DHT22;13809;48.632;11.576;2023-07-22T14:28:26;28.80;16.80
26035;DHT22;13809;48.632;11.576;2023-07-22T14:33:30;28.80;17.70
26035;DHT22;13809;48.632;11.576;2023-07-22T14:38:35;28.80;17.70
26035;DHT22;13809;48.632;11.576;2023-07-22T14:43:38;28.90;17.40
26035;DHT22;13809;48.632;11.576;2023-07-22T14:48:41;29.00;17.80
26035;DHT22;13809;48.632;11.576;2023-07-22T14:53:48;29.10;17.50
26035;DHT22;13809;48.632;11.576;2023-07-22T14:58:51;29.10;16.90
26035;DHT22;13809;48.632;11.576;2023-07-22T15:03:54;29.10;17.40
26035;DHT22;13809;48.632;11.576;2023-07-22T15:09:00;29.20;17.40
26035;DHT22;13809;48.632;11.576;2023-07-22T15:14:10;29.10;16.50
26035;DHT22;13809;48.632;11.576;2023-07-22T15:19:18;29.10;16.70
26035;DHT22;13809;48.632;11.576;2023-07-22T15:24:24;29.00;17.00
26035;DHT22;13809;48.632;11.576;2023-07-22T15:29:27;28.90;16.70
26035;DHT22;13809;48.632;11.576;2023-07-22T15:34:31;28.90;17.10
26035;DHT22;13809;48.632;11.576;2023-07-22T15:39:36;28.90;16.50
26035;DHT22;13809;48.632;11.576;2023-07-22T15:44:39;28.90;16.50
26035;DHT22;13809;48.632;11.576;2023-07-22T15:49:42;28.90;16.80
26035;DHT22;13809;48.632;11.576;2023-07-22T15:54:47;28.90;16.80
26035;DHT22;13809;48.632;11.576;2023-07-22T15:59:50;28.90;16.30
26035;DHT22;13809;48.632;11.576;2023-07-22T16:04:53;28.90;16.90
26035;DHT22;13809;48.632;11.576;2023-07-22T16:09:58;28.80;17.10
26035;DHT22;13809;48.632;11.576;2023-07-22T16:15:01;28.80;16.70
26035;DHT22;13809;48.632;11.576;2023-07-22T16:20:08;28.90;16.80
26035;DHT22;13809;48.632;11.576;2023-07-22T16:25:14;29.10;16.90
26035;DHT22;13809;48.632;11.576;2023-07-22T16:30:18;29.20;16.40
26035;DHT22;13809;48.632;11.576;2023-07-22T16:35:21;29.10;16.50
26035;DHT22;13809;48.632;11.576;2023-07-22T16:40:28;28.90;16.50
26035;DHT22;13809;48.632;11.576;2023-07-22T16:45:31;28.90;16.20
26035;DHT22;13809;48.632;11.576;2023-07-22T16:50:35;28.80;16.50
26035;DHT22;13809;48.632;11.576;2023-07-22T16:55:39;28.80;16.80
26035;DHT22;13809;48.632;11.576;2023-07-22T17:00:43;28.90;16.50
26035;DHT22;13809;48.632;11.576;2023-07-22T17:05:49;28.80;16.60
26035;DHT22;13809;48.632;11.576;2023-07-22T17:10:54;28.70;16.60
26035;DHT22;13809;48.632;11.576;2023-07-22T17:15:58;28.60;16.60
26035;DHT22;13809;48.632;11.576;2023-07-22T17:21:02;28.50;16.40
26035;DHT22;13809;48.632;11.576;2023-07-22T17:26:07;28.50;16.70
26035;DHT22;13809;48.632;11.576;2023-07-22T17:31:10;28.40;16.70
26035;DHT22;13809;48.632;11.576;2023-07-22T17:36:13;28.30;16.90
26035;DHT22;13809;48.632;11.576;2023-07-22T17:41:18;28.30;17.10
26035;DHT22;13809;48.632;11.576;2023-07-22T17:46:21;28.30;16.80
26035;DHT22;13809;48.632;11.576;2023-07-22T17:51:24;28.20;17.00
26035;DHT22;13809;48.632;11.576;2023-07-22T17:56:29;28.20;17.20
26035;DHT22;13809;48.632;11.576;2023-07-22T18:01:32;28.20;17.20
26035;DHT22;13809;48.632;11.576;2023-07-22T18:06:36;28.10;17.40
26035;DHT22;13809;48.632;11.576;2023-07-22T18:11:40;28.20;17.40
26035;DHT22;13809;48.632;11.576;2023-07-22T18:16:47;28.10;17.40
26035;DHT22;13809;48.632;11.576;2023-07-22T18:21:50;28.10;17.40
26035;DHT22;13809;48.632;11.576;2023-07-22T18:26:55;28.10;17.50
26035;DHT22;13809;48.632;11.576;2023-07-22T18:31:58;27.90;17.40
26035;DHT22;13809;48.632;11.576;2023-07-22T18:37:01;27.70;17.50
26035;DHT22;13809;48.632;11.576;2023-07-22T18:42:06;27.50;17.80
26035;DHT22;13809;48.632;11.576;2023-07-22T18:47:09;27.40;18.00
26035;DHT22;13809;48.632;11.576;2023-07-22T18:52:12;27.20;18.00
26035;DHT22;13809;48.632;11.576;2023-07-22T18:57:17;27.10;18.20
26035;DHT22;13809;48.632;11.576;2023-07-22T19:02:20;27.10;18.40
26035;DHT22;13809;48.632;11.576;2023-07-22T19:07:23;27.00;18.50
26035;DHT22;13809;48.632;11.576;2023-07-22T19:12:28;27.00;18.90
26035;DHT22;13809;48.632;11.576;2023-07-22T19:17:32;27.00;19.10
26035;DHT22;13809;48.632;11.576;2023-07-22T19:22:35;27.10;19.20
26035;DHT22;13809;48.632;11.576;2023-07-22T19:27:39;27.00;19.20
26035;DHT22;13809;48.632;11.576;2023-07-22T19:32:43;26.90;19.50
26035;DHT22;13809;48.632;11.576;2023-07-22T19:37:46;26.80;19.40
26035;DHT22;13809;48.632;11.576;2023-07-22T19:42:51;26.70;19.40
26035;DHT22;13809;48.632;11.576;2023-07-22T19:47:54;26.50;19.40
26035;DHT22;13809;48.632;11.576;2023-07-22T19:52:57;26.30;19.70
26035;DHT22;13809;48.632;11.576;2023-07-22T19:58:02;26.20;20.00
26035;DHT22;13809;48.632;11.576;2023-07-22T20:03:05;26.00;20.50
26035;DHT22;13809;48.632;11.576;2023-07-22T20:08:09;26.00;20.40
26035;DHT22;13809;48.632;11.576;2023-07-22T20:13:13;26.00;20.60
26035;DHT22;13809;48.632;11.576;2023-07-22T20:18:17;26.00;21.10
26035;DHT22;13809;48.632;11.576;2023-07-22T20:23:20;26.00;20.90
26035;DHT22;13809;48.632;11.576;2023-07-22T20:28:25;25.90;21.00
26035;DHT22;13809;48.632;11.576;2023-07-22T20:33:28;25.80;21.30
26035;DHT22;13809;48.632;11.576;2023-07-22T20:38:34;25.70;21.10
26035;DHT22;13809;48.632;11.576;2023-07-22T20:43:39;25.60;21.40
26035;DHT22;13809;48.632;11.576;2023-07-22T20:48:42;25.50;21.60
26035;DHT22;13809;48.632;11.576;2023-07-22T20:53:45;25.40;21.60
26035;DHT22;13809;48.632;11.576;2023-07-22T20:58:50;25.30;21.60
26035;DHT22;13809;48.632;11.576;2023-07-22T21:03:53;25.20;21.80
26035;DHT22;13809;48.632;11.576;2023-07-22T21:08:56;25.10;21.60
26035;DHT22;13809;48.632;11.576;2023-07-22T21:14:01;24.90;21.90
26035;DHT22;13809;48.632;11.576;2023-07-22T21:19:05;24.90;22.20
26035;DHT22;13809;48.632;11.576;2023-07-22T21:24:08;24.80;22.10
26035;DHT22;13809;48.632;11.576;2023-07-22T21:29:12;24.60;22.20
26035;DHT22;13809;48.632;11.576;2023-07-22T21:34:17;24.50;22.80
26035;DHT22;13809;48.632;11.576;2023-07-22T21:39:20;24.30;22.70
26035;DHT22;13809;48.632;11.576;2023-07-22T21:44:25;24.10;22.90
26035;DHT22;13809;48.632;11.576;2023-07-22T21:49:28;23.90;23.50
26035;DHT22;13809;48.632;11.576;2023-07-22T21:54:32;23.70;23.20
26035;DHT22;13809;48.632;11.576;2023-07-22T21:59:37;23.60;23.50
26035;DHT22;13809;48.632;11.576;2023-07-22T22:04:41;23.50;23.90
26035;DHT22;13809;48.632;11.576;2023-07-22T22:09:44;23.50;23.80
26035;DHT22;13809;48.632;11.576;2023-07-22T22:14:53;23.40;23.90
26035;DHT22;13809;48.632;11.576;2023-07-22T22:19:57;23.40;24.60
26035;DHT22;13809;48.632;11.576;2023-07-22T22:25:00;23.30;23.90
26035;DHT22;13809;48.632;11.576;2023-07-22T22:30:06;23.30;24.00
26035;DHT22;13809;48.632;11.576;2023-07-22T22:35:10;23.20;24.50
26035;DHT22;13809;48.632;11.576;2023-07-22T22:40:14;23.20;24.30
26035;DHT22;13809;48.632;11.576;2023-07-22T22:45:18;23.20;24.40
26035;DHT22;13809;48.632;11.576;2023-07-22T22:50:21;23.10;24.80
26035;DHT22;13809;48.632;11.576;2023-07-22T22:55:25;23.00;24.40
26035;DHT22;13809;48.632;11.576;2023-07-22T23:00:30;22.80;24.40
26035;DHT22;13809;48.632;11.576;2023-07-22T23:05:33;22.50;25.00
26035;DHT22;13809;48.632;11.576;2023-07-22T23:10:36;22.30;24.70
26035;DHT22;13809;48.632;11.576;2023-07-22T23:15:41;22.10;25.10
26035;DHT22;13809;48.632;11.576;2023-07-22T23:20:44;22.00;25.60
26035;DHT22;13809;48.632;11.576;2023-07-22T23:25:47;21.90;25.30
26035;DHT22;13809;48.632;11.576;2023-07-22T23:30:55;21.90;25.40
26035;DHT22;13809;48.632;11.576;2023-07-22T23:36:00;21.80;26.50
26035;DHT22;13809;48.632;11.576;2023-07-22T23:41:06;21.80;25.70
26035;DHT22;13809;48.632;11.576;2023-07-22T23:46:11;21.80;25.60
26035;DHT22;13809;48.632;11.576;2023-07-22T23:51:14;21.70;26.20
26035;DHT22;13809;48.632;11.576;2023-07-22T23:56:17;21.70;25.80
